createdAt,value
2019-05-19T00:02:25.165Z,15.20
2019-05-19T00:04:56.103Z,15.20
2019-05-19T00:07:27.314Z,15.20
2019-05-19T00:09:58.220Z,15.10
2019-05-19T00:12:29.668Z,15.10
2019-05-19T00:15:00.765Z,15.10
2019-05-19T00:17:32.183Z,15.10
2019-05-19T00:20:03.934Z,15.10
2019-05-19T00:22:35.431Z,15.10
2019-05-19T00:25:06.516Z,15.10
2019-05-19T00:27:37.916Z,15.10
2019-05-19T00:30:10.235Z,15.00
2019-05-19T00:32:41.256Z,15.00
2019-05-19T00:35:12.769Z,15.00
2019-05-19T00:37:43.836Z,15.00
2019-05-19T00:40:14.871Z,15.00
2019-05-19T00:42:46.202Z,15.00
2019-05-19T00:45:17.305Z,15.00
2019-05-19T00:47:48.283Z,15.00
2019-05-19T00:50:19.857Z,14.90
2019-05-19T00:52:50.818Z,14.90
2019-05-19T00:55:22.181Z,14.90
2019-05-19T00:57:53.609Z,14.80
2019-05-19T01:00:24.705Z,14.90
2019-05-19T01:02:55.707Z,14.90
2019-05-19T01:05:27.032Z,14.90
2019-05-19T01:07:58.650Z,14.80
2019-05-19T01:10:29.914Z,14.80
2019-05-19T01:13:00.857Z,14.80
2019-05-19T01:15:33.271Z,14.80
2019-05-19T01:18:04.473Z,14.70
2019-05-19T01:20:35.601Z,14.70
2019-05-19T01:23:06.884Z,14.80
2019-05-19T01:25:38.259Z,14.80
2019-05-19T01:28:09.296Z,14.70
2019-05-19T01:30:40.762Z,14.70
2019-05-19T01:33:11.894Z,14.60
2019-05-19T01:35:42.906Z,14.60
2019-05-19T01:38:14.234Z,14.60
2019-05-19T01:40:45.644Z,14.70
2019-05-19T01:43:16.674Z,14.60
2019-05-19T01:45:47.628Z,14.70
2019-05-19T01:48:18.795Z,14.70
2019-05-19T01:50:50.240Z,14.60
2019-05-19T01:53:21.208Z,14.70
2019-05-19T01:55:52.655Z,14.60
2019-05-19T01:58:24.045Z,14.60
2019-05-19T02:00:55.324Z,14.60
2019-05-19T02:03:26.716Z,14.60
2019-05-19T02:05:58.034Z,14.60
2019-05-19T02:08:29.528Z,14.60
2019-05-19T02:11:00.458Z,14.60
2019-05-19T02:13:31.767Z,14.60
2019-05-19T02:16:02.723Z,14.60
2019-05-19T02:18:34.089Z,14.60
2019-05-19T02:21:05.196Z,14.60
2019-05-19T02:23:36.915Z,14.60
2019-05-19T02:26:08.335Z,14.60
2019-05-19T02:28:39.757Z,14.60
2019-05-19T02:31:10.900Z,14.60
2019-05-19T02:33:41.836Z,14.60
2019-05-19T02:36:12.784Z,14.60
2019-05-19T02:38:43.811Z,14.60
2019-05-19T02:41:17.827Z,14.60
2019-05-19T02:43:51.534Z,14.60
2019-05-19T02:46:23.377Z,14.60
2019-05-19T02:48:57.252Z,14.60
2019-05-19T02:51:31.254Z,14.60
2019-05-19T02:54:04.223Z,14.60
2019-05-19T02:56:36.022Z,14.50
2019-05-19T02:59:08.262Z,14.40
2019-05-19T03:01:58.304Z,14.50
2019-05-19T03:04:29.343Z,14.50
2019-05-19T03:07:00.342Z,14.50
2019-05-19T03:09:32.274Z,14.50
2019-05-19T03:12:03.226Z,14.50
2019-05-19T03:14:34.569Z,14.40
2019-05-19T03:17:05.889Z,14.30
2019-05-19T03:19:37.376Z,14.30
2019-05-19T03:22:08.671Z,14.30
2019-05-19T03:24:40.160Z,14.40
2019-05-19T03:27:12.608Z,14.40
2019-05-19T03:29:52.276Z,14.40
2019-05-19T03:32:31.935Z,14.40
2019-05-19T03:35:06.016Z,14.40
2019-05-19T03:37:37.305Z,14.40
2019-05-19T03:40:20.150Z,14.40
2019-05-19T03:42:54.008Z,14.40
2019-05-19T03:45:25.132Z,14.40
2019-05-19T03:47:57.218Z,14.50
2019-05-19T03:50:28.239Z,14.50
2019-05-19T03:52:59.610Z,14.40
2019-05-19T03:55:30.728Z,14.40
2019-05-19T03:58:02.232Z,14.40
2019-05-19T04:00:33.313Z,14.40
2019-05-19T04:03:05.157Z,14.40
2019-05-19T04:05:36.110Z,14.40
2019-05-19T04:08:07.179Z,14.30
2019-05-19T04:10:38.635Z,14.30
2019-05-19T04:13:09.748Z,14.40
2019-05-19T04:15:41.665Z,14.40
2019-05-19T04:18:12.730Z,14.30
2019-05-19T04:20:44.131Z,14.30
2019-05-19T04:23:15.246Z,14.30
2019-05-19T04:25:46.277Z,14.30
2019-05-19T04:28:17.307Z,14.30
2019-05-19T04:30:48.588Z,14.30
2019-05-19T04:33:19.666Z,14.30
2019-05-19T04:35:50.687Z,14.30
2019-05-19T04:38:21.738Z,14.30
2019-05-19T04:40:52.745Z,14.30
2019-05-19T04:43:23.831Z,14.30
2019-05-19T04:45:55.469Z,14.30
2019-05-19T04:48:27.615Z,14.30
2019-05-19T04:50:59.613Z,14.30
2019-05-19T04:53:30.976Z,14.30
2019-05-19T04:56:02.076Z,14.40
2019-05-19T04:58:33.113Z,14.40
2019-05-19T05:01:05.976Z,14.40
2019-05-19T05:03:36.979Z,14.40
2019-05-19T05:06:08.431Z,14.40
2019-05-19T05:08:39.532Z,14.40
2019-05-19T05:11:11.099Z,14.40
2019-05-19T05:13:43.070Z,14.30
2019-05-19T05:16:14.441Z,14.30
2019-05-19T05:18:47.886Z,14.30
2019-05-19T05:21:20.654Z,14.30
2019-05-19T05:23:51.659Z,14.30
2019-05-19T05:26:22.979Z,14.30
2019-05-19T05:28:57.134Z,14.40
2019-05-19T05:31:28.245Z,14.40
2019-05-19T05:33:59.699Z,14.40
2019-05-19T05:36:30.707Z,14.40
2019-05-19T05:39:01.768Z,14.40
2019-05-19T05:41:33.508Z,14.40
2019-05-19T05:44:04.468Z,14.40
2019-05-19T05:46:35.487Z,14.30
2019-05-19T05:49:06.904Z,14.40
2019-05-19T05:51:38.289Z,14.30
2019-05-19T05:54:09.228Z,14.30
2019-05-19T05:56:40.620Z,14.40
2019-05-19T05:59:11.643Z,14.40
2019-05-19T06:01:42.658Z,14.40
2019-05-19T06:04:13.618Z,14.30
2019-05-19T06:06:45.896Z,14.30
2019-05-19T06:09:17.124Z,14.30
2019-05-19T06:11:48.113Z,14.30
2019-05-19T06:14:20.105Z,14.30
2019-05-19T06:16:52.644Z,14.30
2019-05-19T06:19:23.584Z,14.20
2019-05-19T06:21:54.557Z,14.30
2019-05-19T06:24:25.834Z,14.30
2019-05-19T06:26:56.880Z,14.30
2019-05-19T06:29:27.800Z,14.30
2019-05-19T06:32:02.852Z,14.30
2019-05-19T06:34:33.841Z,14.30
2019-05-19T06:37:05.293Z,14.40
2019-05-19T06:39:36.256Z,14.40
2019-05-19T06:42:07.717Z,14.40
2019-05-19T06:44:40.052Z,14.30
2019-05-19T06:47:11.368Z,14.40
2019-05-19T06:49:42.698Z,14.40
2019-05-19T06:52:13.635Z,14.40
2019-05-19T06:54:45.043Z,14.40
2019-05-19T06:57:16.879Z,14.40
2019-05-19T06:59:48.108Z,14.40
2019-05-19T07:02:19.251Z,14.40
2019-05-19T07:04:50.646Z,14.40
2019-05-19T07:07:21.777Z,14.30
2019-05-19T07:09:58.344Z,14.30
2019-05-19T07:12:25.400Z,14.30
2019-05-19T07:14:57.237Z,14.40
2019-05-19T07:17:29.034Z,14.40
2019-05-19T07:19:59.956Z,14.40
2019-05-19T07:22:30.967Z,14.50
2019-05-19T07:25:02.243Z,14.50
2019-05-19T07:27:33.719Z,14.60
2019-05-19T07:30:04.996Z,14.70
2019-05-19T07:32:36.153Z,14.80
2019-05-19T07:35:07.596Z,14.70
2019-05-19T07:37:38.506Z,14.70
2019-05-19T07:40:10.804Z,14.70
2019-05-19T07:42:41.820Z,14.70
2019-05-19T07:45:13.071Z,14.80
2019-05-19T07:47:44.457Z,14.80
2019-05-19T07:50:15.540Z,14.80
2019-05-19T07:52:46.621Z,14.90
2019-05-19T07:55:17.922Z,14.90
2019-05-19T07:57:48.999Z,15.00
2019-05-19T08:00:20.137Z,15.10
2019-05-19T08:02:51.162Z,15.20
2019-05-19T08:05:22.113Z,15.20
2019-05-19T08:07:53.136Z,15.30
2019-05-19T08:10:24.486Z,15.40
2019-05-19T08:12:55.490Z,15.40
2019-05-19T08:15:26.487Z,15.40
2019-05-19T08:17:57.520Z,15.40
2019-05-19T08:20:28.566Z,15.50
2019-05-19T08:23:00.125Z,15.60
2019-05-19T08:25:31.330Z,15.60
2019-05-19T08:28:08.423Z,15.50
2019-05-19T08:30:35.511Z,15.50
2019-05-19T08:33:06.976Z,15.50
2019-05-19T08:35:38.050Z,15.40
2019-05-19T08:38:09.001Z,15.60
2019-05-19T08:40:40.075Z,15.60
2019-05-19T08:43:11.488Z,15.60
2019-05-19T08:45:42.513Z,15.60
2019-05-19T08:48:13.787Z,15.70
2019-05-19T08:50:44.857Z,15.80
2019-05-19T08:53:16.141Z,15.80
2019-05-19T08:55:47.155Z,15.80
2019-05-19T08:58:18.069Z,15.80
2019-05-19T09:00:49.082Z,15.90
2019-05-19T09:03:20.470Z,16.00
2019-05-19T09:05:51.901Z,15.90
2019-05-19T09:08:22.827Z,15.90
2019-05-19T09:10:54.343Z,15.90
2019-05-19T09:13:25.427Z,16.00
2019-05-19T09:15:56.769Z,15.80
2019-05-19T09:18:27.943Z,15.80
2019-05-19T09:20:58.968Z,15.80
2019-05-19T09:23:29.973Z,15.90
2019-05-19T09:26:01.081Z,16.00
2019-05-19T09:28:32.138Z,16.00
2019-05-19T09:31:03.628Z,16.00
2019-05-19T09:33:34.701Z,16.10
2019-05-19T09:36:05.797Z,16.10
2019-05-19T09:38:36.873Z,16.10
2019-05-19T09:41:08.175Z,16.10
2019-05-19T09:43:39.602Z,16.00
2019-05-19T09:46:13.753Z,16.10
2019-05-19T09:48:43.464Z,16.20
2019-05-19T09:51:14.932Z,16.20
2019-05-19T09:53:46.104Z,16.30
2019-05-19T09:56:17.762Z,16.50
2019-05-19T09:58:51.926Z,16.70
2019-05-19T10:01:24.108Z,16.80
2019-05-19T10:03:55.118Z,16.80
2019-05-19T10:06:29.092Z,16.90
2019-05-19T10:09:12.113Z,16.80
2019-05-19T10:12:06.989Z,16.80
2019-05-19T10:14:39.748Z,16.90
2019-05-19T10:17:11.534Z,17.00
2019-05-19T10:19:46.432Z,17.00
2019-05-19T10:22:17.629Z,17.00
2019-05-19T10:25:10.274Z,17.10
2019-05-19T10:27:23.676Z,16.90
2019-05-19T10:29:54.849Z,16.80
2019-05-19T10:32:27.521Z,16.80
2019-05-19T10:34:58.585Z,17.00
2019-05-19T10:37:29.775Z,17.00
2019-05-19T10:40:01.269Z,17.10
2019-05-19T10:42:32.308Z,17.20
2019-05-19T10:45:03.597Z,17.20
2019-05-19T10:47:34.552Z,17.40
2019-05-19T10:50:18.776Z,17.50
2019-05-19T10:53:05.317Z,17.50
2019-05-19T10:55:37.115Z,17.40
2019-05-19T10:58:08.653Z,17.40
2019-05-19T11:00:40.440Z,17.60
2019-05-19T11:03:11.542Z,17.70
2019-05-19T11:05:42.631Z,17.80
2019-05-19T11:08:13.765Z,17.90
2019-05-19T11:10:45.133Z,17.80
2019-05-19T11:16:23.249Z,18.00
2019-05-19T11:18:54.214Z,18.10
2019-05-19T11:21:25.216Z,18.20
2019-05-19T11:23:56.249Z,18.40
2019-05-19T11:26:27.307Z,18.50
2019-05-19T11:28:58.784Z,18.30
2019-05-19T11:31:29.786Z,18.10
2019-05-19T11:34:00.906Z,18.10
2019-05-19T11:36:32.207Z,18.10
2019-05-19T11:39:04.401Z,18.00
2019-05-19T11:41:35.406Z,18.10
2019-05-19T11:44:06.772Z,18.10
2019-05-19T11:46:38.071Z,18.20
2019-05-19T11:49:09.351Z,18.40
2019-05-19T11:51:40.290Z,18.30
2019-05-19T11:54:11.414Z,18.20
2019-05-19T11:56:42.784Z,18.30
2019-05-19T11:59:13.818Z,18.40
2019-05-19T12:01:44.929Z,18.40
2019-05-19T12:04:15.970Z,18.50
2019-05-19T12:06:47.041Z,18.60
2019-05-19T12:09:18.067Z,18.50
2019-05-19T12:11:49.059Z,18.50
2019-05-19T12:14:20.093Z,18.70
2019-05-19T12:16:51.227Z,18.80
2019-05-19T12:19:22.667Z,18.80
2019-05-19T12:21:53.681Z,18.80
2019-05-19T12:24:25.084Z,18.70
2019-05-19T12:26:56.170Z,18.70
2019-05-19T12:29:27.153Z,18.70
2019-05-19T12:31:58.138Z,18.80
2019-05-19T12:34:29.808Z,19.00
2019-05-19T12:37:01.216Z,19.20
2019-05-19T12:39:32.267Z,19.30
2019-05-19T12:42:03.639Z,19.10
2019-05-19T12:44:34.672Z,19.10
2019-05-19T12:47:06.393Z,19.20
2019-05-19T12:49:38.779Z,19.30
2019-05-19T12:52:09.862Z,19.20
2019-05-19T12:54:40.980Z,19.20
2019-05-19T12:57:12.069Z,19.20
2019-05-19T12:59:43.488Z,19.10
2019-05-19T13:02:14.507Z,19.20
2019-05-19T13:05:03.276Z,19.30
2019-05-19T13:07:18.591Z,19.40
2019-05-19T13:09:50.305Z,19.40
2019-05-19T13:12:21.812Z,19.40
2019-05-19T13:14:52.887Z,19.40
2019-05-19T13:17:23.945Z,19.40
2019-05-19T13:19:55.130Z,19.30
2019-05-19T13:22:26.222Z,19.30
2019-05-19T13:24:57.269Z,19.30
2019-05-19T13:27:29.083Z,19.30
2019-05-19T13:30:00.579Z,19.30
2019-05-19T13:32:32.163Z,19.50
2019-05-19T13:35:03.265Z,19.60
2019-05-19T13:37:34.494Z,19.80
2019-05-19T13:40:05.969Z,19.90
2019-05-19T13:42:37.070Z,19.90
2019-05-19T13:45:09.767Z,19.90
2019-05-19T13:47:40.805Z,20.00
2019-05-19T13:50:11.940Z,20.10
2019-05-19T13:52:42.976Z,20.00
2019-05-19T13:55:14.192Z,19.90
2019-05-19T13:57:45.182Z,19.80
2019-05-19T14:00:18.246Z,19.70
2019-05-19T14:02:49.288Z,19.70
2019-05-19T14:05:21.466Z,19.70
2019-05-19T14:07:53.486Z,19.60
2019-05-19T14:10:24.472Z,19.50
2019-05-19T14:12:55.476Z,19.50
2019-05-19T14:15:26.528Z,19.50
2019-05-19T14:17:58.022Z,19.50
2019-05-19T14:20:29.094Z,19.40
2019-05-19T14:23:00.188Z,19.50
2019-05-19T14:25:31.637Z,19.50
2019-05-19T14:28:02.777Z,19.50
2019-05-19T14:30:33.880Z,19.40
2019-05-19T14:33:05.335Z,19.30
2019-05-19T14:35:36.372Z,19.20
2019-05-19T14:38:07.405Z,19.10
2019-05-19T14:40:38.344Z,19.20
2019-05-19T14:43:10.163Z,19.20
2019-05-19T14:45:41.789Z,19.10
2019-05-19T14:48:12.844Z,19.20
2019-05-19T14:50:43.827Z,19.20
2019-05-19T14:53:15.187Z,19.10
2019-05-19T14:55:46.766Z,19.20
2019-05-19T14:58:18.228Z,19.20
2019-05-19T15:00:49.616Z,19.00
2019-05-19T15:03:20.639Z,19.00
2019-05-19T15:05:51.791Z,19.00
2019-05-19T15:08:22.842Z,19.00
2019-05-19T15:10:53.867Z,18.90
2019-05-19T15:13:24.912Z,18.80
2019-05-19T15:15:58.064Z,18.70
2019-05-19T15:18:28.741Z,18.50
2019-05-19T15:20:59.763Z,18.40
2019-05-19T15:23:31.128Z,18.40
2019-05-19T15:26:02.157Z,18.30
2019-05-19T15:28:33.163Z,18.20
2019-05-19T15:31:04.158Z,18.20
2019-05-19T15:33:38.269Z,18.30
2019-05-19T15:36:07.947Z,18.20
2019-05-19T15:38:39.260Z,18.10
2019-05-19T15:41:10.298Z,18.00
2019-05-19T15:43:41.608Z,17.90
2019-05-19T15:46:13.142Z,17.90
2019-05-19T15:48:44.911Z,17.90
2019-05-19T15:51:27.857Z,17.80
2019-05-19T15:53:49.414Z,17.80
2019-05-19T15:56:20.454Z,17.60
2019-05-19T15:58:52.200Z,17.00
2019-05-19T16:01:23.578Z,16.20
2019-05-19T16:03:54.991Z,15.90
2019-05-19T16:06:26.499Z,15.80
2019-05-19T16:08:57.945Z,15.60
2019-05-19T16:11:28.987Z,15.60
2019-05-19T16:14:00.649Z,15.60
2019-05-19T16:16:31.948Z,15.50
2019-05-19T16:19:02.949Z,15.60
2019-05-19T16:21:33.918Z,15.60
2019-05-19T16:24:05.094Z,15.50
2019-05-19T16:26:36.925Z,15.50
2019-05-19T16:29:07.892Z,15.40
2019-05-19T16:31:39.035Z,15.40
2019-05-19T16:34:10.014Z,15.40
2019-05-19T16:36:41.425Z,15.30
2019-05-19T16:39:12.406Z,15.30
2019-05-19T16:41:43.682Z,15.30
2019-05-19T16:44:14.683Z,15.30
2019-05-19T16:46:45.664Z,15.30
2019-05-19T16:49:16.647Z,15.30
2019-05-19T16:51:47.620Z,15.10
2019-05-19T16:54:23.618Z,15.20
2019-05-19T16:56:54.894Z,15.10
2019-05-19T16:59:25.867Z,15.10
2019-05-19T17:01:57.232Z,15.30
2019-05-19T17:04:29.283Z,15.20
2019-05-19T17:07:03.012Z,15.20
2019-05-19T17:09:33.231Z,15.10
2019-05-19T17:12:06.811Z,15.10
2019-05-19T17:14:37.250Z,15.20
2019-05-19T17:17:08.276Z,15.30
2019-05-19T17:19:39.271Z,15.30
2019-05-19T17:22:10.282Z,15.10
2019-05-19T17:24:41.619Z,15.30
2019-05-19T17:27:12.696Z,15.20
2019-05-19T17:29:43.645Z,15.20
2019-05-19T17:32:14.731Z,15.10
2019-05-19T17:34:46.038Z,14.90
2019-05-19T17:37:18.140Z,15.00
2019-05-19T17:39:49.166Z,15.00
2019-05-19T17:42:20.440Z,14.90
2019-05-19T17:44:52.785Z,14.90
2019-05-19T17:47:23.851Z,14.90
2019-05-19T17:49:54.866Z,15.00
2019-05-19T17:52:26.245Z,14.90
2019-05-19T17:54:57.317Z,14.80
2019-05-19T17:57:28.434Z,14.70
2019-05-19T18:00:00.006Z,14.80
2019-05-19T18:02:31.232Z,14.60
2019-05-19T18:05:02.534Z,14.70
2019-05-19T18:07:33.781Z,14.70
2019-05-19T18:10:07.367Z,14.60
2019-05-19T18:12:38.362Z,14.70
2019-05-19T18:15:09.388Z,14.60
2019-05-19T18:17:40.405Z,14.60
2019-05-19T18:20:23.315Z,14.60
2019-05-19T18:22:44.941Z,14.50
2019-05-19T18:25:16.080Z,14.50
2019-05-19T18:27:47.081Z,14.50
2019-05-19T18:30:18.227Z,14.50
2019-05-19T18:32:49.231Z,14.40
2019-05-19T18:35:20.376Z,14.40
2019-05-19T18:37:51.536Z,14.30
2019-05-19T18:40:22.905Z,14.30
2019-05-19T18:42:53.986Z,14.30
2019-05-19T18:45:25.040Z,14.30
2019-05-19T18:47:56.733Z,14.20
2019-05-19T18:50:27.819Z,14.20
2019-05-19T18:52:58.888Z,14.10
2019-05-19T18:55:29.981Z,14.10
2019-05-19T18:58:00.976Z,14.20
2019-05-19T19:00:38.999Z,14.20
2019-05-19T19:03:10.152Z,14.10
2019-05-19T19:05:41.661Z,14.00
2019-05-19T19:08:12.711Z,14.10
2019-05-19T19:10:44.067Z,13.90
2019-05-19T19:13:15.408Z,13.60
2019-05-19T19:15:46.405Z,13.70
2019-05-19T19:18:17.735Z,13.90
2019-05-19T19:20:48.799Z,13.80
2019-05-19T19:23:20.346Z,13.50
2019-05-19T19:25:51.753Z,13.60
2019-05-19T19:28:23.352Z,13.60
2019-05-19T19:30:54.654Z,13.50
2019-05-19T19:33:27.343Z,13.60
2019-05-19T19:35:58.383Z,13.70
2019-05-19T19:38:29.531Z,13.70
2019-05-19T19:41:00.914Z,13.60
2019-05-19T19:43:31.982Z,13.70
2019-05-19T19:46:03.015Z,13.60
2019-05-19T19:48:34.104Z,13.70
2019-05-19T19:51:05.174Z,13.50
2019-05-19T19:53:36.191Z,13.60
2019-05-19T19:56:07.294Z,13.60
2019-05-19T19:58:38.296Z,13.60
2019-05-19T20:01:09.815Z,13.60
2019-05-19T20:03:40.865Z,13.60
2019-05-19T20:06:12.290Z,13.60
2019-05-19T20:08:43.355Z,13.60
2019-05-19T20:11:14.477Z,13.60
2019-05-19T20:13:46.160Z,13.70
2019-05-19T20:16:17.496Z,13.70
2019-05-19T20:18:48.565Z,13.60
2019-05-19T20:21:19.508Z,13.70
2019-05-19T20:23:51.288Z,13.70
2019-05-19T20:26:22.402Z,13.70
2019-05-19T20:28:53.476Z,13.70
2019-05-19T20:31:24.448Z,13.70
2019-05-19T20:33:55.475Z,13.70
2019-05-19T20:36:26.795Z,13.70
2019-05-19T20:38:57.893Z,13.70
2019-05-19T20:41:29.142Z,13.70
2019-05-19T20:44:00.140Z,13.70
2019-05-19T20:46:31.119Z,13.70
2019-05-19T20:49:02.567Z,13.70
2019-05-19T20:51:33.934Z,13.60
2019-05-19T20:54:06.069Z,13.50
2019-05-19T20:56:37.044Z,13.50
2019-05-19T20:59:08.073Z,13.60
2019-05-19T21:01:39.025Z,13.60
2019-05-19T21:04:10.007Z,13.60
2019-05-19T21:06:41.540Z,13.60
2019-05-19T21:09:12.540Z,13.50
2019-05-19T21:11:43.518Z,13.60
2019-05-19T21:14:14.556Z,13.60
2019-05-19T21:16:45.598Z,13.60
2019-05-19T21:19:18.252Z,13.50
2019-05-19T21:21:49.617Z,13.60
2019-05-19T21:24:20.631Z,13.50
2019-05-19T21:26:51.644Z,13.50
2019-05-19T21:29:23.661Z,13.50
2019-05-19T21:31:54.701Z,13.50
2019-05-19T21:34:25.719Z,13.50
2019-05-19T21:36:56.819Z,13.50
2019-05-19T21:39:28.100Z,13.50
2019-05-19T21:41:59.077Z,13.50
2019-05-19T21:44:30.671Z,13.40
2019-05-19T21:47:01.696Z,13.40
2019-05-19T21:49:32.641Z,13.40
2019-05-19T21:52:03.618Z,13.40
2019-05-19T21:54:34.693Z,13.40
2019-05-19T21:57:05.746Z,13.40
2019-05-19T21:59:37.135Z,13.50
2019-05-19T22:02:08.296Z,13.50
2019-05-19T22:04:39.980Z,13.50
2019-05-19T22:07:19.553Z,13.40
2019-05-19T22:09:51.811Z,13.40
2019-05-19T22:12:22.818Z,13.40
2019-05-19T22:14:54.587Z,13.50
2019-05-19T22:17:25.614Z,13.50
2019-05-19T22:19:56.646Z,13.40
2019-05-19T22:22:27.716Z,13.40
2019-05-19T22:24:58.812Z,13.40
2019-05-19T22:27:29.945Z,13.30
2019-05-19T22:30:01.892Z,13.20
2019-05-19T22:32:33.998Z,13.20
2019-05-19T22:35:05.042Z,13.10
2019-05-19T22:37:36.047Z,13.10
2019-05-19T22:40:07.642Z,13.20
2019-05-19T22:42:38.624Z,13.20
2019-05-19T22:45:10.137Z,13.20
2019-05-19T22:47:41.197Z,13.10
2019-05-19T22:50:12.261Z,13.00
2019-05-19T22:52:43.287Z,13.00
2019-05-19T22:55:14.969Z,13.10
2019-05-19T22:57:46.279Z,13.00
2019-05-19T23:00:20.731Z,12.90
2019-05-19T23:02:51.789Z,12.90
2019-05-19T23:05:23.295Z,12.90
2019-05-19T23:07:54.293Z,12.90
2019-05-19T23:10:28.035Z,12.90
2019-05-19T23:13:00.686Z,13.00
2019-05-19T23:15:32.568Z,13.00
2019-05-19T23:18:03.799Z,13.00
2019-05-19T23:20:34.908Z,13.00
2019-05-19T23:23:05.997Z,13.00
2019-05-19T23:25:37.304Z,12.90
2019-05-19T23:28:08.333Z,12.90
2019-05-19T23:30:39.321Z,12.90
2019-05-19T23:33:10.317Z,12.80
2019-05-19T23:35:41.598Z,12.90
2019-05-19T23:38:12.644Z,12.90
2019-05-19T23:40:43.641Z,12.90
2019-05-19T23:43:14.683Z,12.80
2019-05-19T23:45:45.666Z,12.90
2019-05-19T23:48:16.956Z,12.80
2019-05-19T23:50:48.301Z,12.70
2019-05-19T23:53:19.594Z,12.70
2019-05-19T23:55:50.661Z,12.70
2019-05-19T23:58:22.057Z,12.70
